Newton Falls, Ohio
Current Conditions -  °F | °C
As of 1:56 PM on Tuesday 27 Jan 2015 (Local Time) from KPOV Reporting Station
Light Snow Light Snow  
Wind Chill: 11°   Ceiling: 1900
Heat Index: 20°   Visibility: 5mi
Dew Point: 11°   Wind: 7mph
Humidity: 68%   Direction: 340°NNW
Pressure: 29.99"   Gusts: NA
Location:  41.19°N, 80.98°W
Report Text: KPOV 271856Z AUTO 34006KT 5SM -SN OVC019 M06/M11 A2999 RMK AO2 T10651115
Loading
Personal Weather Stations






























Interactive Weather Map New forecast layout! Learn more

10-Day Weather Forecast

Advertisements
Track Severe Weather on mobile